Time;durP1;ratioP1;P1;durP2;ratioP2;P2;SDS_P1;SDS_P2;PMS_P1;PMS_P2;Temp;Humidity;BMP_temperature;BMP_pressure;BME280_temperature;BME280_humidity;BME280_pressure;Samples;Min_cycle;Max_cycle;Signal;HPM_P1;HPM_P2
2022/08/21 00:00:38;;;;;;;15.13;7.93;;;;;;;25.03;47.53;101706.28;5025743;28;20056;-63
2022/08/21 00:03:07;;;;;;;11.57;6.93;;;;;;;25.05;47.40;101706.91;5031570;28;20049;-63
2022/08/21 00:05:37;;;;;;;10.13;6.60;;;;;;;25.06;47.24;101704.03;5027152;28;20029;-63
2022/08/21 00:08:02;;;;;;;;;;;;;;;25.03;47.25;101708.94;5038157;28;20091;-63
2022/08/21 00:10:28;;;;;;;10.98;6.65;;;;;;;25.00;47.29;101699.50;5039017;28;19999;-64
2022/08/21 00:12:55;;;;;;;13.10;6.53;;;;;;;24.97;47.68;101700.69;5040101;28;20037;-63
2022/08/21 00:15:28;;;;;;;10.93;5.30;;;;;;;24.97;47.51;101700.69;5034639;28;20086;-64
2022/08/21 00:17:55;;;;;;;10.30;5.72;;;;;;;24.99;47.25;101700.47;5035370;28;20119;-64
2022/08/21 00:20:21;;;;;;;11.48;5.82;;;;;;;24.93;47.52;101694.06;5042653;28;20062;-65
2022/08/21 00:22:47;;;;;;;9.45;6.25;;;;;;;24.91;47.72;101695.28;5041277;28;20052;-65
2022/08/21 00:25:14;;;;;;;10.85;5.55;;;;;;;24.96;47.45;101699.03;5033609;28;20049;-65
2022/08/21 00:27:42;;;;;;;8.35;5.28;;;;;;;24.89;47.62;101702.63;5036259;28;20675;-63
2022/08/21 00:30:09;;;;;;;12.00;5.88;;;;;;;24.93;47.51;101695.91;5033620;28;20500;-63
2022/08/21 00:32:38;;;;;;;8.38;5.60;;;;;;;24.97;47.38;101700.69;5038160;28;20041;-65
2022/08/21 00:35:11;;;;;;;9.30;5.10;;;;;;;24.99;47.37;101692.50;5035320;28;20037;-65
2022/08/21 00:37:37;;;;;;;10.85;5.18;;;;;;;24.95;47.30;101697.34;5038974;28;20055;-65
2022/08/21 00:40:05;;;;;;;6.88;4.60;;;;;;;24.96;47.41;101692.88;5032893;28;20024;-65
2022/08/21 00:42:31;;;;;;;10.40;5.22;;;;;;;24.96;47.41;101693.69;5037853;28;20368;-65
2022/08/21 00:44:57;;;;;;;11.50;4.75;;;;;;;24.86;47.57;101695.84;5036076;28;20110;-65
2022/08/21 00:47:23;;;;;;;11.10;5.07;;;;;;;24.97;47.32;101691.88;5035166;28;20057;-66
2022/08/21 00:49:49;;;;;;;9.05;4.90;;;;;;;24.87;47.40;101694.84;5037621;28;20047;-66
2022/08/21 00:52:22;;;;;;;7.38;4.93;;;;;;;24.93;47.38;101688.72;5039257;28;20037;-65
2022/08/21 00:54:49;;;;;;;9.90;5.10;;;;;;;24.90;47.16;101696.28;5037509;28;20045;-65
2022/08/21 00:57:20;;;;;;;7.78;4.60;;;;;;;24.92;47.27;101692.41;5034608;28;20043;-65
2022/08/21 00:59:49;;;;;;;8.00;4.78;;;;;;;24.88;47.08;101701.00;5035348;28;20072;-66
2022/08/21 01:02:16;;;;;;;11.65;5.10;;;;;;;24.93;47.06;101695.91;5038609;28;20180;-65
2022/08/21 01:04:42;;;;;;;11.65;4.93;;;;;;;24.93;47.09;101694.06;5033450;28;20038;-65
2022/08/21 01:07:08;;;;;;;8.13;4.80;;;;;;;24.88;47.12;101695.66;5041245;28;20029;-65
2022/08/21 01:09:35;;;;;;;8.40;4.63;;;;;;;24.91;46.94;101697.94;5034507;28;20059;-65
2022/08/21 01:12:01;;;;;;;9.80;5.35;;;;;;;24.91;47.00;101692.63;5037697;28;20049;-65
2022/08/21 01:14:28;;;;;;;9.80;4.53;;;;;;;24.84;47.32;101695.22;5034517;28;20053;-65
2022/08/21 01:16:55;;;;;;;7.63;4.30;;;;;;;24.90;46.98;101699.78;5034905;28;20037;-65
2022/08/21 01:19:22;;;;;;;10.32;4.70;;;;;;;24.88;47.22;101698.34;5033892;28;20132;-65
2022/08/21 01:21:48;;;;;;;13.25;4.97;;;;;;;24.85;47.02;101694.22;5041735;28;20403;-62
2022/08/21 01:24:14;;;;;;;8.30;4.70;;;;;;;24.91;46.86;101690.78;5039713;28;20052;-65
2022/08/21 01:26:41;;;;;;;16.45;5.22;;;;;;;24.84;47.04;101703.22;5034873;28;20115;-65
2022/08/21 01:29:31;;;;;;;9.75;4.43;;;;;;;24.85;47.08;101691.56;5036533;28;20083;-65
2022/08/21 01:31:59;;;;;;;5.78;3.90;;;;;;;24.85;47.30;101696.06;5036310;28;20094;-66
2022/08/21 01:34:25;;;;;;;9.40;5.00;;;;;;;24.89;47.01;101695.47;5031716;28;20052;-65
2022/08/21 01:36:51;;;;;;;7.97;4.80;;;;;;;24.83;47.26;101698.91;5034245;28;20028;-65
2022/08/21 01:39:16;;;;;;;7.60;4.22;;;;;;;24.79;47.30;101700.31;5031887;28;20110;-65
2022/08/21 01:41:43;;;;;;;8.63;4.80;;;;;;;24.82;46.93;101696.44;5035386;28;20041;-65
2022/08/21 01:44:08;;;;;;;8.10;4.90;;;;;;;24.82;46.98;101691.13;5030576;28;20544;-65
2022/08/21 01:46:34;;;;;;;9.65;4.53;;;;;;;24.87;47.00;101691.34;5031706;28;20206;-65
2022/08/21 01:48:59;;;;;;;6.65;3.90;;;;;;;24.77;47.10;101682.84;5032207;28;21785;-65
2022/08/21 01:51:25;;;;;;;7.97;4.10;;;;;;;24.78;47.27;101682.69;5054525;28;20650;-65
2022/08/21 01:53:51;;;;;;;7.47;4.45;;;;;;;24.82;47.23;101678.63;5040138;28;20048;-65
2022/08/21 01:56:17;;;;;;;7.00;4.13;;;;;;;24.75;47.26;101680.38;5033884;28;20037;-65
2022/08/21 01:58:45;;;;;;;8.32;4.20;;;;;;;24.76;47.23;101678.53;5019670;28;20029;-64
2022/08/21 02:01:10;;;;;;;10.65;4.72;;;;;;;24.71;47.24;101674.63;5030045;28;20091;-64
2022/08/21 02:03:36;;;;;;;7.63;4.28;;;;;;;24.81;47.07;101679.63;5034291;28;20609;-64
2022/08/21 02:06:06;;;;;;;7.55;4.35;;;;;;;24.67;47.37;101670.69;5028571;28;20521;-64
2022/08/21 02:08:32;;;;;;;11.32;4.53;;;;;;;24.70;47.32;101667.66;5035873;28;20029;-64
2022/08/21 02:10:57;;;;;;;9.65;4.68;;;;;;;24.59;47.24;101654.03;5035381;28;20479;-64
2022/08/21 02:13:23;;;;;;;9.25;4.70;;;;;;;24.73;47.09;101660.28;5032142;28;20048;-64
2022/08/21 02:15:48;;;;;;;9.90;4.32;;;;;;;24.71;47.00;101652.50;5032305;28;20121;-64
2022/08/21 02:18:14;;;;;;;8.02;4.60;;;;;;;24.64;47.01;101655.13;5033844;28;20045;-64
2022/08/21 02:20:44;;;;;;;10.60;4.75;;;;;;;24.64;47.00;101662.28;5032452;28;20481;-64
2022/08/21 02:23:10;;;;;;;;;;;;;;;24.72;47.08;101664.78;5037952;28;20139;-64
2022/08/21 02:25:36;;;;;;;13.55;5.10;;;;;;;24.74;46.98;101656.59;5020032;28;19921;-65
2022/08/21 02:28:13;;;;;;;11.25;4.68;;;;;;;24.62;47.27;101657.16;5031710;28;20116;-64
2022/08/21 02:30:45;;;;;;;8.60;5.43;;;;;;;24.70;47.05;101659.66;5027361;28;20048;-65
2022/08/21 02:33:12;;;;;;;6.20;4.28;;;;;;;24.74;47.00;101659.28;5030526;28;20046;-64
2022/08/21 02:35:41;;;;;;;8.57;4.53;;;;;;;24.61;47.13;101652.84;5031501;28;20120;-64
2022/08/21 02:38:09;;;;;;;11.73;5.45;;;;;;;24.69;46.98;101657.19;5038466;28;20029;-64
2022/08/21 02:40:38;;;;;;;10.25;5.00;;;;;;;24.64;47.07;101654.28;5031586;28;20941;-64
2022/08/21 02:43:05;;;;;;;6.38;4.30;;;;;;;24.58;46.99;101655.84;5034771;28;20037;-64
2022/08/21 02:45:32;;;;;;;11.68;5.30;;;;;;;24.55;47.08;101653.59;5033752;28;20033;-64
2022/08/21 02:48:03;;;;;;;8.60;5.22;;;;;;;24.52;47.32;101653.97;5035160;28;20034;-64
2022/08/21 02:50:31;;;;;;;11.77;5.10;;;;;;;24.58;47.04;101642.53;5034532;28;20063;-64
2022/08/21 02:52:57;;;;;;;14.38;4.90;;;;;;;24.67;46.86;101659.22;5036562;28;20033;-64
2022/08/21 02:55:26;;;;;;;12.80;4.88;;;;;;;24.69;46.93;101649.19;5036547;28;20052;-64
2022/08/21 02:57:53;;;;;;;7.30;4.72;;;;;;;24.62;47.27;101649.16;5035784;28;20094;-64
2022/08/21 03:00:20;;;;;;;11.20;4.68;;;;;;;24.61;47.32;101641.38;5024993;28;20505;-64
2022/08/21 03:02:46;;;;;;;13.05;4.65;;;;;;;24.66;46.88;101642.44;5033932;28;20072;-64
2022/08/21 03:05:14;;;;;;;10.45;4.72;;;;;;;24.59;47.05;101638.03;5029059;28;20043;-64
2022/08/21 03:07:39;;;;;;;10.95;4.43;;;;;;;24.58;46.89;101637.22;5030838;28;20395;-64
2022/08/21 03:10:06;;;;;;;9.30;5.40;;;;;;;24.59;46.86;101633.53;5030021;28;20041;-64
2022/08/21 03:12:31;;;;;;;11.32;5.07;;;;;;;24.43;47.13;101623.19;5029623;28;20037;-64
2022/08/21 03:14:57;;;;;;;8.60;5.03;;;;;;;24.40;47.32;101627.03;5028852;28;20045;-64
2022/08/21 03:17:24;;;;;;;7.97;4.03;;;;;;;24.53;47.18;101626.31;5026487;28;20596;-64
2022/08/21 03:19:49;;;;;;;11.50;4.70;;;;;;;24.48;46.99;101627.94;5031421;28;20554;-64
2022/08/21 03:22:15;;;;;;;9.32;4.75;;;;;;;24.47;47.36;101616.44;5038009;28;20173;-64
2022/08/21 03:24:40;;;;;;;7.93;4.53;;;;;;;24.45;46.94;101613.16;5027148;28;20065;-64
2022/08/21 03:27:06;;;;;;;11.32;4.60;;;;;;;24.47;47.14;101615.63;5034772;28;20036;-64
2022/08/21 03:29:31;;;;;;;8.40;5.07;;;;;;;24.50;46.85;101618.72;5028708;28;20033;-64
2022/08/21 03:31:57;;;;;;;12.40;4.78;;;;;;;24.50;47.10;101612.59;5030362;28;20041;-64
2022/08/21 03:34:22;;;;;;;10.00;4.78;;;;;;;24.36;47.19;101603.66;5031714;28;20491;-64
2022/08/21 03:36:48;;;;;;;8.90;4.47;;;;;;;24.45;46.98;101615.81;5030742;28;20041;-64
2022/08/21 03:39:15;;;;;;;9.18;4.35;;;;;;;24.51;47.11;101617.72;5034292;28;20069;-64
2022/08/21 03:41:41;;;;;;;8.77;4.32;;;;;;;24.43;47.17;101612.53;5032234;28;20041;-64
2022/08/21 03:44:06;;;;;;;10.07;4.45;;;;;;;24.50;47.28;101613.41;5029837;28;20068;-64
2022/08/21 03:46:32;;;;;;;10.95;5.13;;;;;;;24.46;47.22;101612.16;5032990;28;20029;-65
2022/08/21 03:48:57;;;;;;;10.80;4.80;;;;;;;24.41;47.32;101599.38;5030627;28;20778;-64
2022/08/21 03:51:23;;;;;;;8.07;4.47;;;;;;;24.40;47.26;101600.41;5032767;28;20128;-64
2022/08/21 03:53:48;;;;;;;6.03;4.18;;;;;;;24.48;47.18;101599.47;5044953;28;20044;-64
2022/08/21 03:56:15;;;;;;;7.10;4.10;;;;;;;24.44;47.16;101600.88;5034010;28;20041;-64
2022/08/21 03:58:41;;;;;;;13.65;4.60;;;;;;;24.31;47.22;101592.75;5034146;28;20052;-63
2022/08/21 04:01:06;;;;;;;11.25;4.93;;;;;;;24.44;46.91;101592.88;5030053;28;20041;-64
2022/08/21 04:03:35;;;;;;;9.77;4.18;;;;;;;24.46;46.97;101598.00;5030068;28;20044;-64
2022/08/21 04:06:01;;;;;;;9.40;4.13;;;;;;;24.40;47.03;101599.59;5034920;28;20371;-64
2022/08/21 04:08:26;;;;;;;6.65;4.47;;;;;;;24.37;47.17;101606.13;5033836;28;20146;-64
2022/08/21 04:10:55;;;;;;;8.63;4.32;;;;;;;24.34;47.28;101600.34;5030604;28;20048;-63
2022/08/21 04:13:21;;;;;;;9.70;4.93;;;;;;;24.36;47.08;101607.13;5032781;28;20388;-63
2022/08/21 04:15:47;;;;;;;8.77;4.35;;;;;;;24.36;47.01;101608.97;5032484;28;20141;-64
2022/08/21 04:18:13;;;;;;;8.10;4.53;;;;;;;24.33;46.87;101601.38;5027909;28;20138;-64
2022/08/21 04:20:40;;;;;;;11.55;5.03;;;;;;;24.24;47.01;101602.50;5033013;28;20079;-63
2022/08/21 04:23:06;;;;;;;7.30;4.22;;;;;;;24.34;46.86;101597.69;5037048;28;20039;-63
2022/08/21 04:25:32;;;;;;;9.80;4.63;;;;;;;24.24;47.05;101598.00;5029663;28;20041;-64
2022/08/21 04:27:58;;;;;;;7.30;4.15;;;;;;;24.32;47.09;101599.72;5033023;28;20044;-64
2022/08/21 04:30:23;;;;;;;8.55;4.97;;;;;;;24.24;46.84;101598.00;5026282;28;20056;-64
2022/08/21 04:32:50;;;;;;;8.32;4.25;;;;;;;24.27;46.67;101604.78;5023349;28;20033;-64
2022/08/21 04:35:19;;;;;;;12.93;4.55;;;;;;;24.25;46.93;101604.97;5033297;28;20040;-63
2022/08/21 04:37:45;;;;;;;8.05;4.70;;;;;;;24.24;46.93;101599.84;5034817;28;20566;-64
2022/08/21 04:40:13;;;;;;;7.55;4.25;;;;;;;24.34;46.80;101608.34;5034243;28;20029;-64
2022/08/21 04:42:45;;;;;;;6.78;4.22;;;;;;;24.33;46.86;101596.88;5027041;28;20041;-64
2022/08/21 04:45:20;;;;;;;9.35;4.18;;;;;;;24.32;46.79;101599.72;5026868;28;20046;-63
2022/08/21 04:47:48;;;;;;;8.52;4.57;;;;;;;24.33;46.63;101601.38;5031478;28;20041;-64
2022/08/21 04:50:14;;;;;;;7.95;4.75;;;;;;;24.14;47.07;101600.13;5036653;28;20049;-63
2022/08/21 04:52:53;;;;;;;11.00;4.95;;;;;;;24.31;46.79;101606.06;5038448;28;20037;-64
2022/08/21 04:55:19;;;;;;;8.40;4.40;;;;;;;24.28;46.92;101606.41;5039242;28;20095;-63
2022/08/21 04:57:45;;;;;;;9.95;4.13;;;;;;;24.16;46.87;101606.09;5033286;28;20048;-63
2022/08/21 05:00:13;;;;;;;12.30;4.70;;;;;;;24.36;46.50;101612.44;5033954;28;20041;-64
2022/08/21 05:02:40;;;;;;;7.90;4.47;;;;;;;24.23;46.92;101604.31;5035445;28;20147;-64
2022/08/21 05:05:06;;;;;;;11.57;4.70;;;;;;;24.08;47.16;101583.09;5031610;28;20102;-64
2022/08/21 05:07:32;;;;;;;8.73;4.40;;;;;;;24.35;46.74;101605.50;5035291;28;20479;-64
2022/08/21 05:09:59;;;;;;;7.78;4.00;;;;;;;24.29;46.60;101608.09;5034502;28;20040;-64
2022/08/21 05:12:25;;;;;;;9.32;4.75;;;;;;;24.17;46.69;101604.25;5029907;28;21036;-63
2022/08/21 05:14:51;;;;;;;7.72;4.45;;;;;;;24.15;46.70;101603.63;5029878;28;20060;-64
2022/08/21 05:17:16;;;;;;;9.18;4.57;;;;;;;24.07;46.78;101607.25;5038210;28;20036;-64
2022/08/21 05:19:42;;;;;;;8.40;4.75;;;;;;;24.03;46.55;101606.78;5033520;28;20124;-63
2022/08/21 05:22:09;;;;;;;8.52;4.78;;;;;;;24.09;46.58;101607.88;5037135;28;20035;-64
2022/08/21 05:24:34;;;;;;;10.07;4.70;;;;;;;24.01;46.46;101607.97;5032373;28;20450;-64
2022/08/21 05:27:00;;;;;;;7.75;4.50;;;;;;;24.05;46.40;101604.75;5037441;28;20036;-64
2022/08/21 05:29:26;;;;;;;9.70;4.07;;;;;;;24.03;46.34;101611.28;5032220;28;20115;-63
2022/08/21 05:31:52;;;;;;;9.45;4.38;;;;;;;23.98;46.34;101614.50;5029932;28;20505;-64
2022/08/21 05:34:20;;;;;;;9.77;4.55;;;;;;;24.00;46.56;101614.31;5034155;28;20098;-63
2022/08/21 05:36:45;;;;;;;8.85;5.40;;;;;;;23.98;46.37;101603.03;5036888;28;20045;-64
2022/08/21 05:39:11;;;;;;;9.20;4.50;;;;;;;23.98;46.39;101616.34;5034768;28;20113;-64
2022/08/21 05:41:37;;;;;;;7.10;4.60;;;;;;;23.98;46.41;101611.84;5048776;28;20090;-63
2022/08/21 05:44:03;;;;;;;8.25;4.38;;;;;;;23.93;46.59;101610.78;5031410;28;20773;-64
2022/08/21 05:46:28;;;;;;;9.65;4.53;;;;;;;24.01;46.28;101611.47;5036778;28;20043;-63
2022/08/21 05:48:53;;;;;;;11.52;4.70;;;;;;;24.04;46.16;101611.06;5032282;28;20034;-64
2022/08/21 05:51:19;;;;;;;8.63;4.65;;;;;;;24.01;46.27;101616.78;5032663;28;20091;-64
2022/08/21 05:53:45;;;;;;;8.20;4.50;;;;;;;24.04;46.37;101613.75;5042428;28;20037;-64
2022/08/21 05:56:12;;;;;;;9.35;4.65;;;;;;;23.92;46.37;101603.81;5038081;28;20056;-63
2022/08/21 05:58:38;;;;;;;9.52;4.20;;;;;;;23.95;46.25;101614.06;5033712;28;20604;-64
2022/08/21 06:01:04;;;;;;;10.00;4.43;;;;;;;23.92;46.33;101609.94;5030624;28;20037;-64
2022/08/21 06:03:33;;;;;;;11.70;4.63;;;;;;;23.86;46.60;101605.34;5031107;28;20072;-64
2022/08/21 06:06:00;;;;;;;9.13;4.25;;;;;;;23.96;46.32;101608.56;5035237;28;20048;-64
2022/08/21 06:08:25;;;;;;;9.32;4.53;;;;;;;23.97;46.05;101606.72;5033820;28;20037;-64
2022/08/21 06:10:52;;;;;;;9.93;4.38;;;;;;;23.92;46.42;101614.44;5039028;28;20573;-64
2022/08/21 06:13:19;;;;;;;9.63;4.85;;;;;;;24.00;46.27;101620.47;5037560;28;20060;-63
2022/08/21 06:15:45;;;;;;;10.90;4.30;;;;;;;23.97;46.38;101615.50;5038987;28;20041;-64
2022/08/21 06:18:10;;;;;;;8.27;4.32;;;;;;;23.99;46.49;101610.81;5035163;28;20039;-64
2022/08/21 06:20:36;;;;;;;7.60;4.68;;;;;;;24.03;46.29;101614.75;5034278;28;20072;-63
2022/08/21 06:23:03;;;;;;;13.52;5.10;;;;;;;23.99;46.10;101612.66;5047536;28;20139;-63
2022/08/21 06:25:29;;;;;;;12.70;4.25;;;;;;;23.85;46.73;101608.19;5035577;28;20060;-64
2022/08/21 06:28:03;;;;;;;9.70;4.18;;;;;;;23.94;46.55;101607.09;5033027;28;20041;-64
2022/08/21 06:30:29;;;;;;;11.15;4.88;;;;;;;24.03;46.48;101617.41;5030972;28;20510;-64
2022/08/21 06:32:54;;;;;;;9.68;4.57;;;;;;;23.95;46.88;101617.53;5032388;28;20123;-64
2022/08/21 06:35:20;;;;;;;8.98;4.05;;;;;;;24.02;46.65;101620.25;5034183;28;20044;-64
2022/08/21 06:37:45;;;;;;;8.13;3.67;;;;;;;24.05;46.75;101615.38;5033556;28;20376;-63
2022/08/21 06:40:11;;;;;;;10.68;4.20;;;;;;;24.02;46.79;101617.59;5034363;28;20041;-63
2022/08/21 06:42:37;;;;;;;11.02;4.20;;;;;;;24.01;46.64;101610.63;5035343;28;20037;-64
2022/08/21 06:45:04;;;;;;;10.98;4.28;;;;;;;24.16;46.56;101615.91;5028968;28;20074;-64
2022/08/21 06:47:30;;;;;;;12.68;4.35;;;;;;;24.07;46.94;101625.88;5035808;28;20037;-64
2022/08/21 06:49:56;;;;;;;7.13;3.95;;;;;;;24.21;46.73;101624.16;5035662;28;20106;-63
2022/08/21 06:52:22;;;;;;;9.15;3.58;;;;;;;24.23;46.88;101609.63;5038693;28;20041;-64
2022/08/21 06:54:47;;;;;;;8.98;3.80;;;;;;;24.23;47.01;101622.94;5034157;28;20111;-64
2022/08/21 06:57:13;;;;;;;11.00;3.67;;;;;;;24.26;47.07;101617.25;5035329;28;20048;-64
2022/08/21 06:59:38;;;;;;;9.85;3.92;;;;;;;24.24;47.23;101623.78;5031956;28;20120;-64
2022/08/21 07:02:04;;;;;;;15.32;4.65;;;;;;;24.27;47.22;101621.56;5029148;28;20033;-64
2022/08/21 07:04:30;;;;;;;12.15;3.97;;;;;;;24.40;47.06;101624.38;5031918;28;20044;-66
2022/08/21 07:06:55;;;;;;;8.10;3.58;;;;;;;24.49;47.00;101619.75;5034861;28;20919;-64
2022/08/21 07:09:21;;;;;;;9.38;3.22;;;;;;;24.49;47.45;101614.41;5031226;28;20036;-64
2022/08/21 07:11:51;;;;;;;10.60;3.97;;;;;;;24.39;47.86;101612.06;5038157;28;20044;-64
2022/08/21 07:14:17;;;;;;;13.40;4.20;;;;;;;24.49;47.71;101616.25;5035581;28;20056;-64
2022/08/21 07:16:43;;;;;;;7.43;3.83;;;;;;;24.23;48.08;101608.81;5039692;28;20045;-65
2022/08/21 07:19:08;;;;;;;13.90;4.03;;;;;;;24.53;47.43;101613.00;5032025;28;20073;-64
2022/08/21 07:21:34;;;;;;;9.27;4.18;;;;;;;24.45;47.71;101609.69;5039433;28;20044;-63
2022/08/21 07:23:59;;;;;;;11.15;3.95;;;;;;;24.40;47.79;101608.38;5035023;28;20076;-64
2022/08/21 07:26:25;;;;;;;11.45;3.67;;;;;;;24.62;47.04;101614.53;5039491;28;20082;-66
2022/08/21 07:28:52;;;;;;;13.32;3.78;;;;;;;24.69;46.84;101620.72;5038915;28;20051;-66
2022/08/21 07:31:20;;;;;;;9.52;3.17;;;;;;;24.78;46.86;101616.09;5029305;28;20069;-66
2022/08/21 07:33:46;;;;;;;11.77;3.30;;;;;;;24.81;46.35;101618.38;5034577;28;20399;-67
2022/08/21 07:36:13;;;;;;;9.50;3.30;;;;;;;24.84;46.61;101617.16;5035672;28;20047;-67
2022/08/21 07:38:38;;;;;;;12.52;4.47;;;;;;;24.89;45.98;101614.72;5038831;28;20045;-66
2022/08/21 07:41:12;;;;;;;16.75;4.20;;;;;;;24.93;46.12;101618.63;5037059;28;20778;-66
2022/08/21 07:43:38;;;;;;;6.40;3.17;;;;;;;24.90;46.08;101613.72;5035774;28;20032;-67
2022/08/21 07:46:03;;;;;;;15.05;3.80;;;;;;;24.91;45.99;101618.84;5035182;28;20111;-66
2022/08/21 07:48:29;;;;;;;14.05;4.07;;;;;;;24.92;46.02;101619.66;5034421;28;20068;-66
2022/08/21 07:50:55;;;;;;;7.00;3.15;;;;;;;24.92;45.63;101623.16;5036765;28;20052;-67
2022/08/21 07:53:20;;;;;;;10.30;3.25;;;;;;;24.95;45.74;101616.59;5031467;28;20060;-67
2022/08/21 07:55:46;;;;;;;15.20;3.90;;;;;;;24.85;45.80;101603.63;5037645;28;20040;-67
2022/08/21 07:58:12;;;;;;;8.55;2.88;;;;;;;24.97;45.41;101614.59;5037035;28;20136;-67
2022/08/21 08:00:39;;;;;;;10.07;3.45;;;;;;;24.91;45.13;101615.34;5031659;28;20029;-67
2022/08/21 08:03:04;;;;;;;10.23;3.00;;;;;;;25.00;45.18;101620.38;5036428;28;20098;-66
2022/08/21 08:05:31;;;;;;;11.45;3.58;;;;;;;24.87;45.42;101609.59;5036055;28;20675;-67
2022/08/21 08:07:57;;;;;;;11.35;4.38;;;;;;;24.96;45.40;101615.63;5031508;28;20127;-67
2022/08/21 08:10:24;;;;;;;12.30;3.75;;;;;;;24.97;45.23;101611.94;5034568;28;20108;-67
2022/08/21 08:12:51;;;;;;;11.82;3.35;;;;;;;25.02;44.74;101614.84;5034353;28;20127;-66
2022/08/21 08:15:22;;;;;;;13.63;3.70;;;;;;;25.00;44.86;101611.56;5034058;28;20507;-67
2022/08/21 08:17:48;;;;;;;11.70;3.05;;;;;;;24.97;44.87;101604.75;5036113;28;20037;-67
2022/08/21 08:20:15;;;;;;;14.18;3.67;;;;;;;25.04;44.44;101615.47;5034115;28;20029;-67
2022/08/21 08:22:42;;;;;;;10.30;3.60;;;;;;;25.05;44.35;101609.13;5036613;28;20079;-67
2022/08/21 08:25:09;;;;;;;18.58;4.28;;;;;;;25.02;44.61;101614.03;5035491;28;20383;-67
2022/08/21 08:27:35;;;;;;;9.20;3.17;;;;;;;25.05;44.41;101608.31;5037328;28;20109;-67
2022/08/21 08:30:01;;;;;;;10.70;3.38;;;;;;;25.09;44.31;101610.38;5037003;28;20044;-67
2022/08/21 08:32:27;;;;;;;21.42;3.75;;;;;;;25.04;44.03;101599.50;5041224;28;20064;-67
2022/08/21 08:34:52;;;;;;;10.50;3.17;;;;;;;24.97;44.05;101588.78;5038169;28;20136;-67
2022/08/21 08:37:20;;;;;;;7.93;3.33;;;;;;;25.05;43.98;101605.63;5039817;28;20044;-67
2022/08/21 08:39:45;;;;;;;13.63;3.30;;;;;;;25.05;44.38;101608.31;5038468;28;20029;-67
2022/08/21 08:42:13;;;;;;;14.20;3.53;;;;;;;25.12;43.91;101601.16;5039031;28;20044;-67
2022/08/21 08:44:41;;;;;;;12.68;3.30;;;;;;;25.03;44.35;101597.84;5038760;28;20044;-67
2022/08/21 08:47:09;;;;;;;11.73;3.58;;;;;;;25.00;44.14;101604.41;5041337;28;20519;-67
2022/08/21 08:49:42;;;;;;;12.52;3.45;;;;;;;25.09;44.00;101601.56;5036516;28;20033;-65
2022/08/21 08:52:22;;;;;;;12.55;3.70;;;;;;;24.95;44.45;101590.78;5032389;28;20604;-65
2022/08/21 08:54:58;;;;;;;14.60;3.75;;;;;;;25.16;44.36;101592.59;5033081;28;20045;-67
2022/08/21 08:57:24;;;;;;;11.43;3.55;;;;;;;25.45;43.92;101594.16;5034141;28;20044;-67
2022/08/21 08:59:55;;;;;;;12.10;3.22;;;;;;;25.49;43.68;101590.06;5038201;28;20055;-66
2022/08/21 09:02:23;;;;;;;9.88;3.40;;;;;;;25.59;43.38;101593.19;5034042;28;20087;-66
2022/08/21 09:04:50;;;;;;;6.78;3.00;;;;;;;25.71;43.17;101590.81;5040115;28;20044;-66
2022/08/21 09:07:39;;;;;;;9.25;2.88;;;;;;;25.73;43.56;101596.78;5037272;28;20076;-67
2022/08/21 09:10:22;;;;;;;8.38;2.92;;;;;;;25.84;43.53;101596.16;5036468;28;20048;-67
2022/08/21 09:13:16;;;;;;;11.15;3.53;;;;;;;25.87;43.18;101592.31;5039698;28;20838;-67
2022/08/21 09:15:53;;;;;;;9.57;3.58;;;;;;;25.83;43.46;101591.84;5038094;28;20041;-67
2022/08/21 09:18:28;;;;;;;8.88;3.08;;;;;;;25.89;43.25;101593.75;5037974;28;20048;-66
2022/08/21 09:21:30;;;;;;;8.68;3.10;;;;;;;25.88;43.24;101591.28;5038430;28;20040;-67
2022/08/21 09:24:27;;;;;;;9.48;3.15;;;;;;;25.92;43.45;101592.50;5040668;28;20064;-67
2022/08/21 09:27:09;;;;;;;6.63;2.80;;;;;;;25.98;43.08;101586.34;5040796;28;20044;-67
2022/08/21 09:29:38;;;;;;;5.45;3.25;;;;;;;25.97;42.95;101589.22;5036523;28;20035;-67
2022/08/21 09:32:14;;;;;;;9.02;3.38;;;;;;;25.88;43.32;101592.09;5030451;28;20107;-67
2022/08/21 09:34:40;;;;;;;5.88;2.60;;;;;;;25.97;43.13;101591.91;5019489;28;20041;-67
2022/08/21 09:37:17;;;;;;;4.03;2.60;;;;;;;25.95;43.58;101599.28;5032537;28;20398;-68
2022/08/21 09:39:43;;;;;;;5.70;2.70;;;;;;;25.95;43.64;101599.28;5034120;28;20427;-67
2022/08/21 09:42:10;;;;;;;4.90;2.80;;;;;;;25.97;43.53;101592.72;5035189;28;20049;-68
2022/08/21 09:44:40;;;;;;;6.53;2.60;;;;;;;25.93;43.52;101588.81;5038214;28;20169;-68
2022/08/21 09:47:12;;;;;;;5.22;2.60;;;;;;;26.00;43.62;101597.66;5033529;28;20446;-67
2022/08/21 09:49:40;;;;;;;5.82;3.00;;;;;;;25.98;43.31;101586.34;5030676;28;20808;-67
2022/08/21 09:52:21;;;;;;;11.05;3.85;;;;;;;25.86;43.54;101586.16;5034941;28;20166;-68
2022/08/21 09:54:51;;;;;;;6.75;2.80;;;;;;;25.95;43.49;101596.63;5031919;28;20037;-67
2022/08/21 09:57:39;;;;;;;8.10;3.30;;;;;;;25.97;43.87;101592.72;5033864;28;20118;-67
2022/08/21 10:00:30;;;;;;;6.85;3.22;;;;;;;26.02;43.73;101594.78;5035409;28;20170;-67
2022/08/21 10:03:18;;;;;;;6.28;2.88;;;;;;;26.00;43.50;101592.31;5030498;28;20088;-67
2022/08/21 10:05:58;;;;;;;8.73;3.10;;;;;;;25.95;44.15;101578.75;5035969;28;20423;-67
2022/08/21 10:08:25;;;;;;;;;;;;;;;26.01;43.59;101591.28;5035990;28;20037;-67
2022/08/21 10:10:55;;;;;;;5.60;2.85;;;;;;;26.03;43.70;101583.91;5027426;28;20056;-67
2022/08/21 10:14:03;;;;;;;6.75;3.03;;;;;;;26.01;44.16;101577.13;5035616;28;20496;-66
2022/08/21 10:16:41;;;;;;;5.63;2.97;;;;;;;25.98;44.04;101585.53;5034927;28;20064;-67
2022/08/21 10:19:12;;;;;;;10.32;3.00;;;;;;;25.99;44.19;101581.84;5037299;28;20033;-68
2022/08/21 10:21:56;;;;;;;4.78;3.20;;;;;;;25.95;44.14;101581.44;5030910;28;20044;-67
2022/08/21 10:24:58;;;;;;;7.60;3.00;;;;;;;25.99;44.05;101576.50;5031615;28;20056;-67
2022/08/21 10:27:46;;;;;;;4.80;2.90;;;;;;;25.98;43.96;101582.88;5034445;28;20123;-67
2022/08/21 10:30:27;;;;;;;9.43;3.15;;;;;;;25.96;44.35;101579.59;5042394;28;20057;-67
2022/08/21 10:33:21;;;;;;;5.50;2.90;;;;;;;25.92;44.13;101576.50;5035620;28;20045;-67
2022/08/21 10:36:11;;;;;;;6.15;2.85;;;;;;;25.92;44.51;101581.00;5038227;28;20048;-67
2022/08/21 10:39:01;;;;;;;6.43;3.20;;;;;;;25.90;44.59;101576.72;5031850;28;20044;-67
2022/08/21 10:41:42;;;;;;;6.32;2.88;;;;;;;25.92;44.13;101575.69;5036463;28;20037;-65
2022/08/21 10:44:10;;;;;;;8.23;3.17;;;;;;;25.94;44.50;101579.78;5038535;28;20060;-67
2022/08/21 10:46:50;;;;;;;7.35;2.60;;;;;;;25.95;44.14;101575.28;5034916;28;20056;-67
2022/08/21 10:49:30;;;;;;;;;;;;;;;25.93;44.41;101574.66;5033452;28;20060;-67
2022/08/21 10:52:22;;;;;;;5.28;2.88;;;;;;;25.80;44.66;101554.91;5027734;28;19921;-66
2022/08/21 10:54:55;;;;;;;7.40;2.90;;;;;;;25.74;44.84;101549.56;5030690;28;20140;-67
2022/08/21 10:57:23;;;;;;;6.20;2.97;;;;;;;25.85;44.47;101560.50;5030039;28;20037;-67
2022/08/21 10:59:58;;;;;;;6.53;2.95;;;;;;;25.83;44.80;101559.84;5035964;28;20885;-67
2022/08/21 11:02:42;;;;;;;5.78;2.80;;;;;;;25.86;44.79;101564.78;5030822;28;20094;-67
2022/08/21 11:05:20;;;;;;;7.97;2.90;;;;;;;25.85;44.68;101572.97;5029314;28;20037;-67
2022/08/21 11:07:54;;;;;;;4.68;3.08;;;;;;;25.84;44.69;101577.50;5034741;28;20453;-68
2022/08/21 11:10:28;;;;;;;6.05;2.95;;;;;;;25.85;45.03;101575.66;5037452;28;20143;-67
2022/08/21 11:13:00;;;;;;;7.82;3.00;;;;;;;25.79;44.70;101571.94;5038259;28;20041;-67
2022/08/21 11:15:41;;;;;;;6.05;2.65;;;;;;;25.74;44.66;101552.25;5035072;28;20041;-66
2022/08/21 11:18:09;;;;;;;3.88;2.80;;;;;;;25.79;44.76;101571.13;5036830;28;20033;-66
2022/08/21 11:20:52;;;;;;;7.30;2.90;;;;;;;25.77;44.96;101574.00;5036416;28;20156;-67
2022/08/21 11:23:46;;;;;;;4.88;2.83;;;;;;;25.76;44.69;101577.69;5027299;28;20041;-66
2022/08/21 11:26:20;;;;;;;5.45;2.90;;;;;;;25.78;44.68;101566.81;5037745;28;20032;-66
2022/08/21 11:28:54;;;;;;;9.50;3.20;;;;;;;25.74;44.67;101565.56;5032245;28;20037;-66
2022/08/21 11:31:58;;;;;;;10.63;3.22;;;;;;;25.72;44.71;101568.44;5034865;28;20135;-66
2022/08/21 11:34:40;;;;;;;7.55;3.03;;;;;;;25.79;44.89;101579.94;5032913;28;20088;-66